sensor_id;sensor_type;location;lat;lon;timestamp;temperature;humidity
12926;DHT22;6529;50.566;9.774;2023-04-25T00:00:10;8.50;99.90
12926;DHT22;6529;50.566;9.774;2023-04-25T00:02:35;8.50;99.90
12926;DHT22;6529;50.566;9.774;2023-04-25T00:05:02;8.60;99.90
12926;DHT22;6529;50.566;9.774;2023-04-25T00:07:28;8.50;99.90
12926;DHT22;6529;50.566;9.774;2023-04-25T00:09:54;8.50;99.90
12926;DHT22;6529;50.566;9.774;2023-04-25T00:12:19;8.40;99.90
12926;DHT22;6529;50.566;9.774;2023-04-25T00:14:46;8.30;99.90
12926;DHT22;6529;50.566;9.774;2023-04-25T00:17:12;8.40;99.90
12926;DHT22;6529;50.566;9.774;2023-04-25T00:19:38;8.40;99.90
12926;DHT22;6529;50.566;9.774;2023-04-25T00:22:03;8.40;99.90
12926;DHT22;6529;50.566;9.774;2023-04-25T00:24:30;8.40;99.90
12926;DHT22;6529;50.566;9.774;2023-04-25T00:26:56;8.30;99.90
12926;DHT22;6529;50.566;9.774;2023-04-25T00:29:22;8.40;99.90
12926;DHT22;6529;50.566;9.774;2023-04-25T00:31:47;8.40;99.90
12926;DHT22;6529;50.566;9.774;2023-04-25T00:34:13;8.40;99.90
12926;DHT22;6529;50.566;9.774;2023-04-25T00:36:38;8.40;99.90
12926;DHT22;6529;50.566;9.774;2023-04-25T00:39:04;8.50;99.90
12926;DHT22;6529;50.566;9.774;2023-04-25T00:41:30;8.40;99.90
12926;DHT22;6529;50.566;9.774;2023-04-25T00:43:56;8.50;99.90
12926;DHT22;6529;50.566;9.774;2023-04-25T00:46:23;8.50;99.90
12926;DHT22;6529;50.566;9.774;2023-04-25T00:48:48;8.50;99.90
12926;DHT22;6529;50.566;9.774;2023-04-25T00:51:16;8.50;99.90
12926;DHT22;6529;50.566;9.774;2023-04-25T00:53:44;8.50;99.90
12926;DHT22;6529;50.566;9.774;2023-04-25T00:56:10;8.40;99.90
12926;DHT22;6529;50.566;9.774;2023-04-25T00:58:36;8.50;99.90
12926;DHT22;6529;50.566;9.774;2023-04-25T01:01:02;8.40;99.90
12926;DHT22;6529;50.566;9.774;2023-04-25T01:03:28;8.40;99.90
12926;DHT22;6529;50.566;9.774;2023-04-25T01:05:55;8.50;99.90
12926;DHT22;6529;50.566;9.774;2023-04-25T01:08:23;8.50;99.90
12926;DHT22;6529;50.566;9.774;2023-04-25T01:10:49;8.60;99.90
12926;DHT22;6529;50.566;9.774;2023-04-25T01:13:14;8.50;99.90
12926;DHT22;6529;50.566;9.774;2023-04-25T01:15:40;8.40;99.90
12926;DHT22;6529;50.566;9.774;2023-04-25T01:18:06;8.30;99.90
12926;DHT22;6529;50.566;9.774;2023-04-25T01:20:33;8.30;99.90
12926;DHT22;6529;50.566;9.774;2023-04-25T01:22:59;8.30;99.90
12926;DHT22;6529;50.566;9.774;2023-04-25T01:25:26;8.30;99.90
12926;DHT22;6529;50.566;9.774;2023-04-25T01:27:51;8.30;99.90
12926;DHT22;6529;50.566;9.774;2023-04-25T01:30:17;8.30;99.90
12926;DHT22;6529;50.566;9.774;2023-04-25T01:32:43;8.30;99.90
12926;DHT22;6529;50.566;9.774;2023-04-25T01:35:11;8.30;99.90
12926;DHT22;6529;50.566;9.774;2023-04-25T01:37:41;8.30;99.90
12926;DHT22;6529;50.566;9.774;2023-04-25T01:40:08;8.30;99.90
12926;DHT22;6529;50.566;9.774;2023-04-25T01:42:35;8.30;99.90
12926;DHT22;6529;50.566;9.774;2023-04-25T01:45:01;8.30;99.90
12926;DHT22;6529;50.566;9.774;2023-04-25T01:47:27;8.30;99.90
12926;DHT22;6529;50.566;9.774;2023-04-25T01:49:53;8.20;99.90
12926;DHT22;6529;50.566;9.774;2023-04-25T01:52:18;8.10;99.90
12926;DHT22;6529;50.566;9.774;2023-04-25T01:54:44;8.00;99.90
12926;DHT22;6529;50.566;9.774;2023-04-25T01:57:11;8.10;99.90
12926;DHT22;6529;50.566;9.774;2023-04-25T01:59:36;8.10;99.90
12926;DHT22;6529;50.566;9.774;2023-04-25T02:02:02;8.00;99.90
12926;DHT22;6529;50.566;9.774;2023-04-25T02:04:31;8.10;99.90
12926;DHT22;6529;50.566;9.774;2023-04-25T02:06:56;8.00;99.90
12926;DHT22;6529;50.566;9.774;2023-04-25T02:09:22;8.00;99.90
12926;DHT22;6529;50.566;9.774;2023-04-25T02:11:48;7.90;99.90
12926;DHT22;6529;50.566;9.774;2023-04-25T02:14:13;7.90;99.90
12926;DHT22;6529;50.566;9.774;2023-04-25T02:16:39;7.90;99.90
12926;DHT22;6529;50.566;9.774;2023-04-25T02:19:05;7.90;99.90
12926;DHT22;6529;50.566;9.774;2023-04-25T02:21:31;7.90;99.90
12926;DHT22;6529;50.566;9.774;2023-04-25T02:23:57;8.00;99.90
12926;DHT22;6529;50.566;9.774;2023-04-25T02:26:23;8.00;99.90
12926;DHT22;6529;50.566;9.774;2023-04-25T02:28:50;7.90;99.90
12926;DHT22;6529;50.566;9.774;2023-04-25T02:31:15;8.00;99.90
12926;DHT22;6529;50.566;9.774;2023-04-25T02:33:41;8.00;99.90
12926;DHT22;6529;50.566;9.774;2023-04-25T02:36:07;8.00;99.90
12926;DHT22;6529;50.566;9.774;2023-04-25T02:38:33;8.00;99.90
12926;DHT22;6529;50.566;9.774;2023-04-25T02:40:58;8.00;99.90
12926;DHT22;6529;50.566;9.774;2023-04-25T02:43:24;8.00;99.90
12926;DHT22;6529;50.566;9.774;2023-04-25T02:45:49;8.00;99.90
12926;DHT22;6529;50.566;9.774;2023-04-25T02:48:15;8.00;99.90
12926;DHT22;6529;50.566;9.774;2023-04-25T02:50:41;8.00;99.90
12926;DHT22;6529;50.566;9.774;2023-04-25T02:53:06;8.00;99.90
12926;DHT22;6529;50.566;9.774;2023-04-25T02:55:32;8.10;99.90
12926;DHT22;6529;50.566;9.774;2023-04-25T02:57:57;8.10;99.90
12926;DHT22;6529;50.566;9.774;2023-04-25T03:00:23;8.10;99.90
12926;DHT22;6529;50.566;9.774;2023-04-25T03:02:48;8.10;99.90
12926;DHT22;6529;50.566;9.774;2023-04-25T03:05:14;8.10;99.90
12926;DHT22;6529;50.566;9.774;2023-04-25T03:07:40;8.10;99.90
12926;DHT22;6529;50.566;9.774;2023-04-25T03:10:06;8.10;99.90
12926;DHT22;6529;50.566;9.774;2023-04-25T03:12:32;8.10;99.90
12926;DHT22;6529;50.566;9.774;2023-04-25T03:14:58;8.00;99.90
12926;DHT22;6529;50.566;9.774;2023-04-25T03:17:23;8.00;99.90
12926;DHT22;6529;50.566;9.774;2023-04-25T03:19:49;8.00;99.90
12926;DHT22;6529;50.566;9.774;2023-04-25T03:22:15;8.00;99.90
12926;DHT22;6529;50.566;9.774;2023-04-25T03:24:40;7.90;99.90
12926;DHT22;6529;50.566;9.774;2023-04-25T03:27:06;7.80;99.90
12926;DHT22;6529;50.566;9.774;2023-04-25T03:29:31;7.70;38.40
12926;DHT22;6529;50.566;9.774;2023-04-25T03:31:57;7.70;1.00
12926;DHT22;6529;50.566;9.774;2023-04-25T03:34:22;7.70;1.00
12926;DHT22;6529;50.566;9.774;2023-04-25T03:36:49;7.60;1.00
12926;DHT22;6529;50.566;9.774;2023-04-25T03:39:15;7.50;1.00
12926;DHT22;6529;50.566;9.774;2023-04-25T03:41:41;7.50;1.00
12926;DHT22;6529;50.566;9.774;2023-04-25T03:44:06;7.40;99.90
12926;DHT22;6529;50.566;9.774;2023-04-25T03:46:32;7.20;1.00
12926;DHT22;6529;50.566;9.774;2023-04-25T03:48:57;7.10;99.90
12926;DHT22;6529;50.566;9.774;2023-04-25T03:51:24;7.10;71.10
12926;DHT22;6529;50.566;9.774;2023-04-25T03:53:51;7.10;99.90
12926;DHT22;6529;50.566;9.774;2023-04-25T03:56:17;7.00;99.90
12926;DHT22;6529;50.566;9.774;2023-04-25T03:58:43;7.00;1.00
12926;DHT22;6529;50.566;9.774;2023-04-25T04:01:09;6.90;1.00
12926;DHT22;6529;50.566;9.774;2023-04-25T04:03:35;6.90;1.00
12926;DHT22;6529;50.566;9.774;2023-04-25T04:06:04;6.80;1.00
12926;DHT22;6529;50.566;9.774;2023-04-25T04:08:31;6.80;1.00
12926;DHT22;6529;50.566;9.774;2023-04-25T04:11:00;6.80;1.00
12926;DHT22;6529;50.566;9.774;2023-04-25T04:13:29;6.80;1.00
12926;DHT22;6529;50.566;9.774;2023-04-25T04:15:55;6.70;1.00
12926;DHT22;6529;50.566;9.774;2023-04-25T04:18:21;6.70;99.90
12926;DHT22;6529;50.566;9.774;2023-04-25T04:20:47;6.70;1.00
12926;DHT22;6529;50.566;9.774;2023-04-25T04:23:13;6.60;1.00
12926;DHT22;6529;50.566;9.774;2023-04-25T04:25:38;6.60;99.90
12926;DHT22;6529;50.566;9.774;2023-04-25T04:28:05;6.50;1.00
12926;DHT22;6529;50.566;9.774;2023-04-25T04:30:31;6.50;1.00
12926;DHT22;6529;50.566;9.774;2023-04-25T04:32:57;6.40;1.00
12926;DHT22;6529;50.566;9.774;2023-04-25T04:35:23;6.40;99.90
12926;DHT22;6529;50.566;9.774;2023-04-25T04:37:50;6.40;41.40
12926;DHT22;6529;50.566;9.774;2023-04-25T04:40:17;6.40;99.90
12926;DHT22;6529;50.566;9.774;2023-04-25T04:42:44;6.40;1.00
12926;DHT22;6529;50.566;9.774;2023-04-25T04:45:11;6.40;99.90
12926;DHT22;6529;50.566;9.774;2023-04-25T04:47:38;6.50;1.00
12926;DHT22;6529;50.566;9.774;2023-04-25T04:50:08;6.40;1.00
12926;DHT22;6529;50.566;9.774;2023-04-25T04:52:38;6.20;1.00
12926;DHT22;6529;50.566;9.774;2023-04-25T04:55:04;6.30;1.00
12926;DHT22;6529;50.566;9.774;2023-04-25T04:57:31;6.30;2.20
12926;DHT22;6529;50.566;9.774;2023-04-25T04:59:58;6.40;1.00
12926;DHT22;6529;50.566;9.774;2023-04-25T05:02:24;6.40;1.00
12926;DHT22;6529;50.566;9.774;2023-04-25T05:04:50;6.40;99.90
12926;DHT22;6529;50.566;9.774;2023-04-25T05:07:17;6.30;18.80
12926;DHT22;6529;50.566;9.774;2023-04-25T05:09:42;6.20;1.00
12926;DHT22;6529;50.566;9.774;2023-04-25T05:12:08;6.20;1.00
12926;DHT22;6529;50.566;9.774;2023-04-25T05:14:33;6.30;1.00
12926;DHT22;6529;50.566;9.774;2023-04-25T05:16:59;6.30;99.90
12926;DHT22;6529;50.566;9.774;2023-04-25T05:19:25;6.30;99.90
12926;DHT22;6529;50.566;9.774;2023-04-25T05:21:52;6.30;99.90
12926;DHT22;6529;50.566;9.774;2023-04-25T05:24:17;6.30;99.90
12926;DHT22;6529;50.566;9.774;2023-04-25T05:26:43;6.40;99.90
12926;DHT22;6529;50.566;9.774;2023-04-25T05:29:08;6.40;99.90
12926;DHT22;6529;50.566;9.774;2023-04-25T05:31:35;6.40;1.00
12926;DHT22;6529;50.566;9.774;2023-04-25T05:34:01;6.40;99.90
12926;DHT22;6529;50.566;9.774;2023-04-25T05:36:26;6.40;99.90
12926;DHT22;6529;50.566;9.774;2023-04-25T05:38:52;6.50;99.90
12926;DHT22;6529;50.566;9.774;2023-04-25T05:41:18;6.70;1.00
12926;DHT22;6529;50.566;9.774;2023-04-25T05:43:43;6.50;1.00
12926;DHT22;6529;50.566;9.774;2023-04-25T05:46:12;6.40;99.90
12926;DHT22;6529;50.566;9.774;2023-04-25T05:48:38;6.60;99.90
12926;DHT22;6529;50.566;9.774;2023-04-25T05:51:04;6.60;99.90
12926;DHT22;6529;50.566;9.774;2023-04-25T05:53:30;6.60;1.00
12926;DHT22;6529;50.566;9.774;2023-04-25T05:55:55;6.60;1.00
12926;DHT22;6529;50.566;9.774;2023-04-25T05:58:21;6.60;1.00
12926;DHT22;6529;50.566;9.774;2023-04-25T06:00:46;6.70;50.00
12926;DHT22;6529;50.566;9.774;2023-04-25T06:03:12;6.60;99.90
12926;DHT22;6529;50.566;9.774;2023-04-25T06:05:41;6.70;1.00
12926;DHT22;6529;50.566;9.774;2023-04-25T06:08:08;6.80;1.00
12926;DHT22;6529;50.566;9.774;2023-04-25T06:10:33;6.80;99.90
12926;DHT22;6529;50.566;9.774;2023-04-25T06:12:59;6.90;1.00
12926;DHT22;6529;50.566;9.774;2023-04-25T06:15:24;6.80;99.90
12926;DHT22;6529;50.566;9.774;2023-04-25T06:17:50;6.70;1.00
12926;DHT22;6529;50.566;9.774;2023-04-25T06:20:16;6.70;1.00
12926;DHT22;6529;50.566;9.774;2023-04-25T06:22:41;6.70;99.90
12926;DHT22;6529;50.566;9.774;2023-04-25T06:25:07;6.60;99.90
12926;DHT22;6529;50.566;9.774;2023-04-25T06:27:33;6.70;1.00
12926;DHT22;6529;50.566;9.774;2023-04-25T06:29:59;6.60;1.00
12926;DHT22;6529;50.566;9.774;2023-04-25T06:32:25;6.70;24.70
12926;DHT22;6529;50.566;9.774;2023-04-25T06:34:52;6.70;1.00
12926;DHT22;6529;50.566;9.774;2023-04-25T06:37:18;6.80;1.00
12926;DHT22;6529;50.566;9.774;2023-04-25T06:39:44;6.80;99.90
12926;DHT22;6529;50.566;9.774;2023-04-25T06:42:09;6.80;99.90
12926;DHT22;6529;50.566;9.774;2023-04-25T06:44:35;6.90;99.90
12926;DHT22;6529;50.566;9.774;2023-04-25T06:47:01;6.90;1.00
12926;DHT22;6529;50.566;9.774;2023-04-25T06:49:26;6.80;99.90
12926;DHT22;6529;50.566;9.774;2023-04-25T06:51:52;6.80;99.90
12926;DHT22;6529;50.566;9.774;2023-04-25T06:54:17;6.80;1.00
12926;DHT22;6529;50.566;9.774;2023-04-25T06:56:43;6.90;1.00
12926;DHT22;6529;50.566;9.774;2023-04-25T06:59:08;6.90;1.00
12926;DHT22;6529;50.566;9.774;2023-04-25T07:01:34;6.80;1.00
12926;DHT22;6529;50.566;9.774;2023-04-25T07:04:01;6.90;99.90
12926;DHT22;6529;50.566;9.774;2023-04-25T07:06:26;7.00;1.00
12926;DHT22;6529;50.566;9.774;2023-04-25T07:08:53;7.10;1.00
12926;DHT22;6529;50.566;9.774;2023-04-25T07:11:18;7.20;1.00
12926;DHT22;6529;50.566;9.774;2023-04-25T07:13:44;7.20;99.90
12926;DHT22;6529;50.566;9.774;2023-04-25T07:16:10;7.20;1.00
12926;DHT22;6529;50.566;9.774;2023-04-25T07:18:35;7.20;1.00
12926;DHT22;6529;50.566;9.774;2023-04-25T07:21:01;7.20;24.10
12926;DHT22;6529;50.566;9.774;2023-04-25T07:23:26;7.20;99.90
12926;DHT22;6529;50.566;9.774;2023-04-25T07:25:52;7.30;1.00
12926;DHT22;6529;50.566;9.774;2023-04-25T07:28:17;7.30;99.90
12926;DHT22;6529;50.566;9.774;2023-04-25T07:30:43;7.40;99.90
12926;DHT22;6529;50.566;9.774;2023-04-25T07:33:09;7.50;1.00
12926;DHT22;6529;50.566;9.774;2023-04-25T07:35:34;7.50;1.00
12926;DHT22;6529;50.566;9.774;2023-04-25T07:38:02;7.60;41.90
12926;DHT22;6529;50.566;9.774;2023-04-25T07:40:28;7.70;99.90
12926;DHT22;6529;50.566;9.774;2023-04-25T07:42:53;7.60;99.90
12926;DHT22;6529;50.566;9.774;2023-04-25T07:45:19;7.60;1.00
12926;DHT22;6529;50.566;9.774;2023-04-25T07:47:44;7.60;1.00
12926;DHT22;6529;50.566;9.774;2023-04-25T07:50:10;7.60;1.00
12926;DHT22;6529;50.566;9.774;2023-04-25T07:52:36;7.70;1.00
12926;DHT22;6529;50.566;9.774;2023-04-25T07:55:01;7.60;1.00
12926;DHT22;6529;50.566;9.774;2023-04-25T07:57:27;7.60;1.00
12926;DHT22;6529;50.566;9.774;2023-04-25T07:59:53;7.70;1.00
12926;DHT22;6529;50.566;9.774;2023-04-25T08:02:18;7.70;20.80
12926;DHT22;6529;50.566;9.774;2023-04-25T08:04:44;7.60;99.90
12926;DHT22;6529;50.566;9.774;2023-04-25T08:07:09;7.70;99.90
12926;DHT22;6529;50.566;9.774;2023-04-25T08:09:35;7.70;47.70
12926;DHT22;6529;50.566;9.774;2023-04-25T08:12:02;7.70;99.90
12926;DHT22;6529;50.566;9.774;2023-04-25T08:14:28;7.70;1.00
12926;DHT22;6529;50.566;9.774;2023-04-25T08:16:56;7.70;9.30
12926;DHT22;6529;50.566;9.774;2023-04-25T08:19:22;7.80;70.30
12926;DHT22;6529;50.566;9.774;2023-04-25T08:21:47;7.90;1.00
12926;DHT22;6529;50.566;9.774;2023-04-25T08:24:13;8.00;1.00
12926;DHT22;6529;50.566;9.774;2023-04-25T08:26:38;8.10;71.50
12926;DHT22;6529;50.566;9.774;2023-04-25T08:29:05;8.30;1.00
12926;DHT22;6529;50.566;9.774;2023-04-25T08:31:30;8.40;34.90
12926;DHT22;6529;50.566;9.774;2023-04-25T08:33:56;8.60;99.90
12926;DHT22;6529;50.566;9.774;2023-04-25T08:36:22;8.60;99.90
12926;DHT22;6529;50.566;9.774;2023-04-25T08:38:48;8.60;99.90
12926;DHT22;6529;50.566;9.774;2023-04-25T08:41:13;8.60;1.00
12926;DHT22;6529;50.566;9.774;2023-04-25T08:43:42;8.60;99.90
12926;DHT22;6529;50.566;9.774;2023-04-25T08:46:09;8.60;4.50
12926;DHT22;6529;50.566;9.774;2023-04-25T08:48:36;8.70;99.90
12926;DHT22;6529;50.566;9.774;2023-04-25T08:51:02;8.80;99.90
12926;DHT22;6529;50.566;9.774;2023-04-25T08:53:32;8.80;1.00
12926;DHT22;6529;50.566;9.774;2023-04-25T08:56:00;8.60;1.00
12926;DHT22;6529;50.566;9.774;2023-04-25T08:58:28;8.50;99.90
12926;DHT22;6529;50.566;9.774;2023-04-25T09:00:54;8.40;13.90
12926;DHT22;6529;50.566;9.774;2023-04-25T09:03:19;8.20;1.00
12926;DHT22;6529;50.566;9.774;2023-04-25T09:05:45;8.10;3.00
12926;DHT22;6529;50.566;9.774;2023-04-25T09:08:10;8.20;1.00
12926;DHT22;6529;50.566;9.774;2023-04-25T09:10:37;8.40;29.60
12926;DHT22;6529;50.566;9.774;2023-04-25T09:13:08;8.50;1.00
12926;DHT22;6529;50.566;9.774;2023-04-25T09:15:47;8.40;1.00
12926;DHT22;6529;50.566;9.774;2023-04-25T09:18:28;8.40;99.90
12926;DHT22;6529;50.566;9.774;2023-04-25T09:21:11;8.40;1.00
12926;DHT22;6529;50.566;9.774;2023-04-25T09:23:55;8.50;1.00
12926;DHT22;6529;50.566;9.774;2023-04-25T09:26:21;8.40;1.00
12926;DHT22;6529;50.566;9.774;2023-04-25T09:28:46;8.30;1.00
12926;DHT22;6529;50.566;9.774;2023-04-25T09:31:22;8.30;9.40
12926;DHT22;6529;50.566;9.774;2023-04-25T09:33:49;8.30;99.90
12926;DHT22;6529;50.566;9.774;2023-04-25T09:36:15;8.30;1.00
12926;DHT22;6529;50.566;9.774;2023-04-25T09:38:45;8.30;1.00
12926;DHT22;6529;50.566;9.774;2023-04-25T09:41:11;8.30;1.00
12926;DHT22;6529;50.566;9.774;2023-04-25T09:43:37;8.30;1.00
12926;DHT22;6529;50.566;9.774;2023-04-25T09:46:10;8.40;1.00
12926;DHT22;6529;50.566;9.774;2023-04-25T09:48:37;8.60;99.90
12926;DHT22;6529;50.566;9.774;2023-04-25T09:51:13;8.80;1.00
12926;DHT22;6529;50.566;9.774;2023-04-25T09:53:43;9.30;1.00
12926;DHT22;6529;50.566;9.774;2023-04-25T09:56:11;9.60;1.00
12926;DHT22;6529;50.566;9.774;2023-04-25T09:58:38;9.90;1.00
12926;DHT22;6529;50.566;9.774;2023-04-25T10:01:09;10.10;99.90
12926;DHT22;6529;50.566;9.774;2023-04-25T10:03:37;10.00;99.90
12926;DHT22;6529;50.566;9.774;2023-04-25T10:06:08;10.00;1.00
12926;DHT22;6529;50.566;9.774;2023-04-25T10:08:37;10.00;1.00
12926;DHT22;6529;50.566;9.774;2023-04-25T10:11:05;9.80;99.90
12926;DHT22;6529;50.566;9.774;2023-04-25T10:13:31;9.60;1.00
12926;DHT22;6529;50.566;9.774;2023-04-25T10:15:58;9.60;99.90
12926;DHT22;6529;50.566;9.774;2023-04-25T10:18:25;9.60;99.90
12926;DHT22;6529;50.566;9.774;2023-04-25T10:20:58;9.50;99.90
12926;DHT22;6529;50.566;9.774;2023-04-25T10:23:25;9.50;99.90
12926;DHT22;6529;50.566;9.774;2023-04-25T10:25:51;9.40;99.90
12926;DHT22;6529;50.566;9.774;2023-04-25T10:28:18;9.40;99.90
12926;DHT22;6529;50.566;9.774;2023-04-25T10:31:02;9.40;41.00
12926;DHT22;6529;50.566;9.774;2023-04-25T10:33:37;9.40;1.00
12926;DHT22;6529;50.566;9.774;2023-04-25T10:38:42;9.30;99.90
12926;DHT22;6529;50.566;9.774;2023-04-25T10:41:08;9.30;95.10
12926;DHT22;6529;50.566;9.774;2023-04-25T10:43:36;9.20;99.90
12926;DHT22;6529;50.566;9.774;2023-04-25T10:46:27;9.10;99.90
12926;DHT22;6529;50.566;9.774;2023-04-25T10:48:53;9.00;80.40
12926;DHT22;6529;50.566;9.774;2023-04-25T10:51:25;8.80;99.90
12926;DHT22;6529;50.566;9.774;2023-04-25T10:58:49;8.70;99.90
12926;DHT22;6529;50.566;9.774;2023-04-25T11:01:21;8.50;99.90
12926;DHT22;6529;50.566;9.774;2023-04-25T11:03:57;8.50;1.00
12926;DHT22;6529;50.566;9.774;2023-04-25T11:06:29;8.50;1.00
12926;DHT22;6529;50.566;9.774;2023-04-25T11:08:55;8.50;1.00
12926;DHT22;6529;50.566;9.774;2023-04-25T11:11:20;8.40;99.90
12926;DHT22;6529;50.566;9.774;2023-04-25T11:13:49;8.40;99.90
12926;DHT22;6529;50.566;9.774;2023-04-25T11:16:16;8.30;1.00
12926;DHT22;6529;50.566;9.774;2023-04-25T11:18:43;8.30;1.00
12926;DHT22;6529;50.566;9.774;2023-04-25T11:21:09;8.30;1.00
12926;DHT22;6529;50.566;9.774;2023-04-25T11:23:35;8.50;1.00
12926;DHT22;6529;50.566;9.774;2023-04-25T11:26:02;8.50;1.00
12926;DHT22;6529;50.566;9.774;2023-04-25T11:28:28;8.50;1.00
12926;DHT22;6529;50.566;9.774;2023-04-25T11:30:54;8.60;1.00
12926;DHT22;6529;50.566;9.774;2023-04-25T11:33:24;8.70;1.00
12926;DHT22;6529;50.566;9.774;2023-04-25T11:35:52;8.80;1.00
12926;DHT22;6529;50.566;9.774;2023-04-25T11:38:18;8.90;99.90
12926;DHT22;6529;50.566;9.774;2023-04-25T11:40:43;8.90;99.90
12926;DHT22;6529;50.566;9.774;2023-04-25T11:43:09;9.10;99.90
12926;DHT22;6529;50.566;9.774;2023-04-25T11:45:36;9.20;1.00
12926;DHT22;6529;50.566;9.774;2023-04-25T11:48:02;9.40;1.00
12926;DHT22;6529;50.566;9.774;2023-04-25T11:50:28;9.50;1.00
12926;DHT22;6529;50.566;9.774;2023-04-25T11:52:56;9.50;1.00
12926;DHT22;6529;50.566;9.774;2023-04-25T11:55:22;9.40;99.90
12926;DHT22;6529;50.566;9.774;2023-04-25T11:57:49;9.30;1.00
12926;DHT22;6529;50.566;9.774;2023-04-25T12:00:19;9.30;1.00
12926;DHT22;6529;50.566;9.774;2023-04-25T12:02:47;9.10;99.90
12926;DHT22;6529;50.566;9.774;2023-04-25T12:05:16;8.90;99.90
12926;DHT22;6529;50.566;9.774;2023-04-25T12:07:42;8.80;1.00
12926;DHT22;6529;50.566;9.774;2023-04-25T12:10:13;8.80;99.90
12926;DHT22;6529;50.566;9.774;2023-04-25T12:12:42;8.90;1.00
12926;DHT22;6529;50.566;9.774;2023-04-25T12:17:38;9.30;99.90
12926;DHT22;6529;50.566;9.774;2023-04-25T12:20:15;9.50;99.90
12926;DHT22;6529;50.566;9.774;2023-04-25T12:22:42;9.70;16.20
12926;DHT22;6529;50.566;9.774;2023-04-25T12:25:12;9.80;30.80
12926;DHT22;6529;50.566;9.774;2023-04-25T12:27:39;10.00;1.00
12926;DHT22;6529;50.566;9.774;2023-04-25T12:30:09;9.90;1.00
12926;DHT22;6529;50.566;9.774;2023-04-25T12:32:36;10.10;1.00
12926;DHT22;6529;50.566;9.774;2023-04-25T12:35:03;10.70;1.00
12926;DHT22;6529;50.566;9.774;2023-04-25T12:37:29;11.50;1.00
12926;DHT22;6529;50.566;9.774;2023-04-25T12:39:55;12.20;99.90
12926;DHT22;6529;50.566;9.774;2023-04-25T12:42:20;12.10;99.90
12926;DHT22;6529;50.566;9.774;2023-04-25T12:44:46;11.80;99.90
12926;DHT22;6529;50.566;9.774;2023-04-25T12:47:12;11.40;99.90
12926;DHT22;6529;50.566;9.774;2023-04-25T12:49:37;10.90;99.90
12926;DHT22;6529;50.566;9.774;2023-04-25T12:52:03;10.60;99.90
12926;DHT22;6529;50.566;9.774;2023-04-25T12:54:28;10.30;99.90
12926;DHT22;6529;50.566;9.774;2023-04-25T12:56:54;10.10;99.90
12926;DHT22;6529;50.566;9.774;2023-04-25T12:59:20;10.00;1.00
12926;DHT22;6529;50.566;9.774;2023-04-25T13:01:46;10.00;1.00
12926;DHT22;6529;50.566;9.774;2023-04-25T13:04:12;10.10;1.00
12926;DHT22;6529;50.566;9.774;2023-04-25T13:06:38;10.10;99.90
12926;DHT22;6529;50.566;9.774;2023-04-25T13:09:03;10.20;99.90
12926;DHT22;6529;50.566;9.774;2023-04-25T13:11:29;10.30;99.90
12926;DHT22;6529;50.566;9.774;2023-04-25T13:13:56;10.40;99.90
12926;DHT22;6529;50.566;9.774;2023-04-25T13:16:21;10.50;99.90
12926;DHT22;6529;50.566;9.774;2023-04-25T13:18:47;10.50;99.90
12926;DHT22;6529;50.566;9.774;2023-04-25T13:21:13;10.60;99.90
12926;DHT22;6529;50.566;9.774;2023-04-25T13:23:39;10.60;99.90
12926;DHT22;6529;50.566;9.774;2023-04-25T13:26:04;10.60;99.90
12926;DHT22;6529;50.566;9.774;2023-04-25T13:28:30;10.70;99.90
12926;DHT22;6529;50.566;9.774;2023-04-25T13:30:56;10.80;99.90
12926;DHT22;6529;50.566;9.774;2023-04-25T13:33:21;10.80;99.90
12926;DHT22;6529;50.566;9.774;2023-04-25T13:35:49;10.90;99.90
12926;DHT22;6529;50.566;9.774;2023-04-25T13:38:20;10.80;99.90
12926;DHT22;6529;50.566;9.774;2023-04-25T13:40:46;10.80;99.90
12926;DHT22;6529;50.566;9.774;2023-04-25T13:43:12;10.60;99.90
12926;DHT22;6529;50.566;9.774;2023-04-25T13:45:37;10.60;99.90
12926;DHT22;6529;50.566;9.774;2023-04-25T13:48:03;10.60;99.90
12926;DHT22;6529;50.566;9.774;2023-04-25T13:50:28;10.60;99.90
12926;DHT22;6529;50.566;9.774;2023-04-25T13:52:54;10.70;99.90
12926;DHT22;6529;50.566;9.774;2023-04-25T13:55:20;10.70;99.90
12926;DHT22;6529;50.566;9.774;2023-04-25T13:57:45;10.60;99.90
12926;DHT22;6529;50.566;9.774;2023-04-25T14:00:12;10.50;99.90
12926;DHT22;6529;50.566;9.774;2023-04-25T14:02:38;10.50;99.90
12926;DHT22;6529;50.566;9.774;2023-04-25T14:05:05;10.70;99.90
12926;DHT22;6529;50.566;9.774;2023-04-25T14:07:31;11.10;99.90
12926;DHT22;6529;50.566;9.774;2023-04-25T14:09:57;11.20;99.90
12926;DHT22;6529;50.566;9.774;2023-04-25T14:12:23;11.50;99.90
12926;DHT22;6529;50.566;9.774;2023-04-25T14:14:49;11.50;99.90
12926;DHT22;6529;50.566;9.774;2023-04-25T14:17:14;11.20;99.90
12926;DHT22;6529;50.566;9.774;2023-04-25T14:19:40;10.80;99.90
12926;DHT22;6529;50.566;9.774;2023-04-25T14:22:09;10.50;99.90
12926;DHT22;6529;50.566;9.774;2023-04-25T14:24:34;10.30;99.90
12926;DHT22;6529;50.566;9.774;2023-04-25T14:27:00;10.20;99.90
12926;DHT22;6529;50.566;9.774;2023-04-25T14:29:26;10.10;99.90
12926;DHT22;6529;50.566;9.774;2023-04-25T14:31:51;10.00;99.90
12926;DHT22;6529;50.566;9.774;2023-04-25T14:34:18;9.90;99.90
12926;DHT22;6529;50.566;9.774;2023-04-25T14:36:44;9.90;99.90
12926;DHT22;6529;50.566;9.774;2023-04-25T14:39:10;9.80;99.90
12926;DHT22;6529;50.566;9.774;2023-04-25T14:41:35;9.70;99.90
12926;DHT22;6529;50.566;9.774;2023-04-25T14:44:01;9.60;99.90
12926;DHT22;6529;50.566;9.774;2023-04-25T14:46:26;9.60;99.90
12926;DHT22;6529;50.566;9.774;2023-04-25T14:48:52;9.60;99.90
12926;DHT22;6529;50.566;9.774;2023-04-25T14:51:18;9.60;99.90
12926;DHT22;6529;50.566;9.774;2023-04-25T14:53:43;9.60;99.90
12926;DHT22;6529;50.566;9.774;2023-04-25T14:56:09;9.50;99.90
12926;DHT22;6529;50.566;9.774;2023-04-25T14:58:35;9.50;99.90
12926;DHT22;6529;50.566;9.774;2023-04-25T15:01:00;9.50;99.90
12926;DHT22;6529;50.566;9.774;2023-04-25T15:03:26;9.50;99.90
12926;DHT22;6529;50.566;9.774;2023-04-25T15:05:55;9.50;99.90
12926;DHT22;6529;50.566;9.774;2023-04-25T15:08:21;9.40;99.90
12926;DHT22;6529;50.566;9.774;2023-04-25T15:10:47;9.40;99.90
12926;DHT22;6529;50.566;9.774;2023-04-25T15:13:13;9.30;99.90
12926;DHT22;6529;50.566;9.774;2023-04-25T15:15:38;9.30;99.90
12926;DHT22;6529;50.566;9.774;2023-04-25T15:18:04;9.30;99.90
12926;DHT22;6529;50.566;9.774;2023-04-25T15:20:30;9.40;99.90
12926;DHT22;6529;50.566;9.774;2023-04-25T15:22:56;9.40;99.90
12926;DHT22;6529;50.566;9.774;2023-04-25T15:25:22;9.50;99.90
12926;DHT22;6529;50.566;9.774;2023-04-25T15:27:47;9.70;99.90
12926;DHT22;6529;50.566;9.774;2023-04-25T15:30:17;9.80;99.90
12926;DHT22;6529;50.566;9.774;2023-04-25T15:32:44;9.80;99.90
12926;DHT22;6529;50.566;9.774;2023-04-25T15:35:10;9.80;99.90
12926;DHT22;6529;50.566;9.774;2023-04-25T15:37:37;9.80;99.90
12926;DHT22;6529;50.566;9.774;2023-04-25T15:40:08;9.80;99.90
12926;DHT22;6529;50.566;9.774;2023-04-25T15:42:41;9.80;99.90
12926;DHT22;6529;50.566;9.774;2023-04-25T15:45:09;9.90;99.90
12926;DHT22;6529;50.566;9.774;2023-04-25T15:47:36;9.90;99.90
12926;DHT22;6529;50.566;9.774;2023-04-25T15:50:06;9.90;99.90
12926;DHT22;6529;50.566;9.774;2023-04-25T15:52:33;9.90;99.90
12926;DHT22;6529;50.566;9.774;2023-04-25T15:54:59;9.90;99.90
12926;DHT22;6529;50.566;9.774;2023-04-25T15:57:25;10.00;99.90
12926;DHT22;6529;50.566;9.774;2023-04-25T15:59:51;10.00;99.90
12926;DHT22;6529;50.566;9.774;2023-04-25T16:02:17;10.10;99.90
12926;DHT22;6529;50.566;9.774;2023-04-25T16:04:44;10.20;99.90
12926;DHT22;6529;50.566;9.774;2023-04-25T16:07:10;10.30;99.90
12926;DHT22;6529;50.566;9.774;2023-04-25T16:09:36;10.70;99.90